Terminal Aerodrome Forecast
Issued by NWS

Home | Current Version | Previous Version | Text Only | Print | Product List | Glossary On
Versions: 1 2 3 4 5 6 7 8 9 10 11 12 13 14 15 16 17 18 19 20 21 22
000
FTUS43 KILX 171700
TAFCMI
TAF
KCMI 171737Z 1718/1818 20007KT P6SM SCT030 BKN100
      TEMPO 1718/1721 BKN035
     FM172100 VRB05KT P6SM SCT050 BKN100
     FM180000 05004KT P6SM SCT050
     FM180900 06003KT 5SM BR SCT250
     FM181400 07006KT P6SM SCT035=

USA.gov is the U.S. government's official web portal to all federal, state and local government web resources and services.